createdAt,value
2022-12-28T00:02:37.034Z,2.03
2022-12-28T00:05:40.557Z,1.70
2022-12-28T00:08:45.498Z,1.73
2022-12-28T00:11:49.186Z,1.50
2022-12-28T00:14:52.943Z,1.60
2022-12-28T00:17:58.442Z,1.50
2022-12-28T00:21:02.749Z,1.58
2022-12-28T00:24:08.038Z,1.30
2022-12-28T00:27:11.421Z,1.90
2022-12-28T00:30:15.055Z,1.30
2022-12-28T00:33:18.713Z,1.15
2022-12-28T00:36:22.267Z,1.52
2022-12-28T00:39:27.097Z,1.13
2022-12-28T00:42:30.601Z,0.80
2022-12-28T00:45:34.078Z,1.52
2022-12-28T00:48:37.562Z,1.60
2022-12-28T00:51:42.017Z,1.35
2022-12-28T00:54:46.784Z,1.33
2022-12-28T00:57:50.617Z,0.80
2022-12-28T01:00:54.685Z,1.27
2022-12-28T01:03:58.529Z,1.60
2022-12-28T01:07:01.903Z,1.13
2022-12-28T01:10:09.680Z,1.08
2022-12-28T01:13:13.249Z,0.88
2022-12-28T01:16:18.072Z,0.98
2022-12-28T01:19:22.575Z,1.10
2022-12-28T01:22:25.966Z,0.88
2022-12-28T01:25:30.806Z,0.90
2022-12-28T01:28:36.116Z,0.95
2022-12-28T01:31:39.558Z,0.75
2022-12-28T01:34:43.308Z,0.80
2022-12-28T01:37:48.827Z,1.05
2022-12-28T01:40:53.845Z,0.73
2022-12-28T01:44:16.212Z,0.90
2022-12-28T01:47:21.591Z,1.05
2022-12-28T01:50:26.681Z,0.95
2022-12-28T01:53:30.574Z,1.00
2022-12-28T01:56:35.553Z,0.90
2022-12-28T01:59:41.284Z,0.90
2022-12-28T02:02:46.383Z,1.10
2022-12-28T02:05:50.385Z,0.98
2022-12-28T02:08:57.783Z,0.95
2022-12-28T02:12:02.711Z,1.10
2022-12-28T02:15:06.731Z,1.10
2022-12-28T02:18:10.672Z,0.82
2022-12-28T02:21:20.810Z,0.60
2022-12-28T02:24:45.300Z,0.65
2022-12-28T02:27:56.625Z,0.70
2022-12-28T02:31:04.805Z,0.90
2022-12-28T02:34:13.429Z,0.98
2022-12-28T02:37:18.971Z,0.65
2022-12-28T02:40:25.018Z,0.77
2022-12-28T02:43:28.873Z,0.98
2022-12-28T02:46:52.958Z,0.60
2022-12-28T02:50:08.471Z,1.15
2022-12-28T02:53:28.679Z,0.75
2022-12-28T02:56:36.959Z,1.13
2022-12-28T02:59:47.747Z,0.93
2022-12-28T03:02:58.663Z,1.02
2022-12-28T03:06:30.192Z,0.82
2022-12-28T03:09:38.269Z,0.75
2022-12-28T03:12:45.292Z,1.05
2022-12-28T03:15:50.396Z,0.95
2022-12-28T03:19:15.508Z,1.00
2022-12-28T03:22:38.254Z,1.25
2022-12-28T03:26:01.574Z,0.68
2022-12-28T03:29:31.487Z,0.80
2022-12-28T03:32:35.555Z,0.88
2022-12-28T03:35:46.404Z,1.02
2022-12-28T03:38:51.933Z,0.80
2022-12-28T03:42:14.984Z,0.85
2022-12-28T03:45:44.321Z,1.00
2022-12-28T03:48:46.962Z,0.88
2022-12-28T03:51:53.589Z,0.98
2022-12-28T03:54:57.119Z,0.95
2022-12-28T03:58:01.189Z,0.90
2022-12-28T04:01:06.349Z,0.88
2022-12-28T04:04:11.558Z,0.57
2022-12-28T04:07:16.690Z,1.05
2022-12-28T04:10:20.471Z,0.90
2022-12-28T04:13:24.165Z,0.90
2022-12-28T04:16:33.326Z,0.80
2022-12-28T04:19:37.589Z,0.57
2022-12-28T04:22:42.505Z,0.88
2022-12-28T04:25:45.963Z,0.75
2022-12-28T04:28:49.411Z,0.90
2022-12-28T04:32:15.898Z,0.75
2022-12-28T04:35:20.304Z,0.50
2022-12-28T04:38:28.443Z,0.63
2022-12-28T04:41:31.861Z,1.17
2022-12-28T04:44:35.629Z,0.95
2022-12-28T04:47:39.915Z,1.00
2022-12-28T04:50:44.001Z,0.85
2022-12-28T04:53:49.671Z,0.70
2022-12-28T04:56:53.174Z,0.88
2022-12-28T04:59:56.537Z,0.80
2022-12-28T05:03:01.326Z,0.90
2022-12-28T05:06:05.192Z,1.27
2022-12-28T05:09:10.092Z,0.80
2022-12-28T05:12:13.622Z,0.90
2022-12-28T05:15:16.913Z,1.00
2022-12-28T05:18:20.352Z,0.80
2022-12-28T05:21:24.714Z,1.27
2022-12-28T05:24:29.632Z,0.90
2022-12-28T05:27:33.111Z,0.90
2022-12-28T05:30:36.445Z,1.05
2022-12-28T05:33:39.825Z,0.77
2022-12-28T05:36:43.131Z,1.00
2022-12-28T05:39:47.883Z,0.90
2022-12-28T05:42:51.770Z,0.70
2022-12-28T05:45:55.169Z,0.82
2022-12-28T05:48:59.370Z,1.20
2022-12-28T05:52:02.724Z,0.93
2022-12-28T05:55:08.557Z,0.88
2022-12-28T05:58:11.813Z,0.80
2022-12-28T06:01:16.574Z,0.80
2022-12-28T06:04:21.162Z,0.93
2022-12-28T06:07:24.463Z,1.15
2022-12-28T06:10:30.042Z,0.98
2022-12-28T06:13:33.745Z,1.10
2022-12-28T06:16:38.341Z,0.77
2022-12-28T06:19:41.861Z,0.75
2022-12-28T06:22:45.300Z,0.95
2022-12-28T06:25:50.125Z,1.25
2022-12-28T06:28:53.720Z,1.20
2022-12-28T06:32:00.914Z,0.85
2022-12-28T06:35:04.255Z,0.82
2022-12-28T06:38:07.665Z,0.90
2022-12-28T06:41:14.832Z,1.02
2022-12-28T06:44:18.829Z,1.15
2022-12-28T06:47:22.147Z,1.05
2022-12-28T06:50:25.583Z,0.95
2022-12-28T06:53:29.771Z,1.13
2022-12-28T06:56:35.835Z,0.82
2022-12-28T06:59:39.303Z,0.85
2022-12-28T07:02:42.650Z,1.08
2022-12-28T07:05:46.024Z,0.80
2022-12-28T07:08:49.696Z,0.80
2022-12-28T07:11:54.506Z,1.00
2022-12-28T07:14:57.832Z,0.60
2022-12-28T07:18:01.151Z,0.70
2022-12-28T07:21:06.152Z,0.65
2022-12-28T07:24:09.833Z,0.63
2022-12-28T07:27:14.509Z,0.80
2022-12-28T07:30:17.841Z,0.63
2022-12-28T07:33:24.015Z,1.00
2022-12-28T07:36:27.889Z,0.82
2022-12-28T07:39:31.273Z,0.90
2022-12-28T07:42:35.918Z,0.85
2022-12-28T07:45:39.216Z,0.70
2022-12-28T07:48:43.057Z,0.80
2022-12-28T07:51:47.279Z,0.70
2022-12-28T07:54:50.709Z,0.70
2022-12-28T07:57:55.393Z,0.80
2022-12-28T08:01:04.736Z,0.80
2022-12-28T08:04:09.987Z,0.90
2022-12-28T08:07:13.287Z,0.63
2022-12-28T08:10:16.693Z,0.82
2022-12-28T08:13:21.873Z,0.88
2022-12-28T08:16:27.239Z,0.68
2022-12-28T08:19:30.818Z,0.98
2022-12-28T08:22:35.346Z,0.68
2022-12-28T08:25:40.540Z,0.82
2022-12-28T08:28:46.318Z,0.70
2022-12-28T08:31:50.153Z,0.68
2022-12-28T08:34:53.616Z,0.60
2022-12-28T08:37:56.979Z,0.73
2022-12-28T08:41:01.187Z,0.77
2022-12-28T08:44:06.241Z,0.52
2022-12-28T08:47:09.711Z,0.70
2022-12-28T08:50:19.530Z,1.35
2022-12-28T08:53:24.254Z,0.70
2022-12-28T08:56:28.392Z,0.95
2022-12-28T08:59:33.108Z,0.70
2022-12-28T09:02:36.728Z,0.70
2022-12-28T09:05:40.243Z,0.55
2022-12-28T09:08:56.862Z,0.80
2022-12-28T09:12:07.754Z,0.60
2022-12-28T09:15:12.679Z,0.70
2022-12-28T09:18:16.022Z,0.57
2022-12-28T09:21:20.267Z,0.60
2022-12-28T09:24:23.976Z,0.65
2022-12-28T09:27:27.325Z,0.60
2022-12-28T09:30:32.172Z,1.15
2022-12-28T09:34:32.081Z,1.83
2022-12-28T09:37:16.815Z,1.63
2022-12-28T09:40:22.665Z,1.48
2022-12-28T09:43:27.183Z,6.70
2022-12-28T09:46:34.652Z,6.43
2022-12-28T09:49:41.739Z,1.63
2022-12-28T09:52:50.013Z,5.38
2022-12-28T09:55:56.194Z,2.20
2022-12-28T09:59:00.493Z,1.48
2022-12-28T10:02:06.372Z,2.28
2022-12-28T10:05:10.381Z,3.15
2022-12-28T10:08:15.280Z,1.73
2022-12-28T10:11:20.590Z,1.50
2022-12-28T10:14:27.189Z,2.88
2022-12-28T10:17:32.065Z,2.75
2022-12-28T10:20:35.737Z,1.65
2022-12-28T10:23:56.633Z,1.77
2022-12-28T10:27:06.783Z,1.67
2022-12-28T10:30:16.844Z,1.45
2022-12-28T10:33:22.082Z,3.00
2022-12-28T10:36:31.325Z,1.92
2022-12-28T10:39:35.245Z,3.22
2022-12-28T10:42:41.366Z,1.90
2022-12-28T10:45:48.423Z,1.40
2022-12-28T10:48:55.691Z,1.10
2022-12-28T10:52:03.475Z,1.13
2022-12-28T10:55:27.654Z,1.20
2022-12-28T10:58:33.355Z,1.20
2022-12-28T11:01:56.872Z,1.08
2022-12-28T11:05:02.384Z,1.30
2022-12-28T11:08:06.359Z,1.00
2022-12-28T11:11:18.129Z,1.10
2022-12-28T11:14:28.687Z,1.15
2022-12-28T11:17:37.583Z,0.93
2022-12-28T11:20:44.695Z,1.20
2022-12-28T11:23:48.456Z,1.10
2022-12-28T11:26:52.139Z,1.00
2022-12-28T11:29:56.589Z,0.93
2022-12-28T11:33:00.968Z,1.00
2022-12-28T11:36:10.116Z,1.10
2022-12-28T11:39:31.589Z,1.10
2022-12-28T11:42:55.356Z,1.00
2022-12-28T11:45:59.431Z,1.10
2022-12-28T11:49:04.382Z,1.20
2022-12-28T11:52:27.414Z,1.00
2022-12-28T11:55:51.224Z,1.00
2022-12-28T11:59:05.096Z,0.98
2022-12-28T12:02:37.720Z,0.75
2022-12-28T12:05:51.617Z,0.70
2022-12-28T12:08:54.990Z,0.70
2022-12-28T12:12:00.580Z,0.95
2022-12-28T12:15:05.632Z,1.05
2022-12-28T12:18:15.690Z,0.90
2022-12-28T12:21:28.706Z,1.52
2022-12-28T12:24:34.273Z,1.95
2022-12-28T12:27:42.043Z,2.10
2022-12-28T12:30:46.872Z,2.30
2022-12-28T12:33:52.537Z,3.75
2022-12-28T12:37:07.575Z,1.70
2022-12-28T12:40:32.052Z,0.85
2022-12-28T12:43:45.626Z,0.57
2022-12-28T12:47:09.601Z,1.00
2022-12-28T12:50:17.689Z,0.90
2022-12-28T12:53:28.212Z,0.60
2022-12-28T12:56:38.008Z,0.68
2022-12-28T12:59:50.987Z,0.93
2022-12-28T13:03:13.276Z,0.70
2022-12-28T13:06:18.953Z,0.65
2022-12-28T13:09:22.875Z,0.90
2022-12-28T13:12:26.985Z,0.90
2022-12-28T13:15:32.223Z,0.88
2022-12-28T13:18:44.936Z,0.90
2022-12-28T13:21:50.003Z,0.88
2022-12-28T13:24:53.389Z,0.80
2022-12-28T13:27:57.943Z,1.25
2022-12-28T13:31:06.925Z,1.48
2022-12-28T13:34:17.488Z,2.70
2022-12-28T13:37:21.471Z,2.10
2022-12-28T13:40:25.016Z,1.80
2022-12-28T13:43:42.348Z,1.25
2022-12-28T13:46:50.636Z,1.13
2022-12-28T13:49:58.225Z,1.95
2022-12-28T13:53:04.792Z,1.10
2022-12-28T13:56:08.772Z,1.15
2022-12-28T13:59:14.035Z,1.25
2022-12-28T14:02:21.462Z,1.05
2022-12-28T14:05:26.238Z,1.17
2022-12-28T14:08:30.336Z,1.02
2022-12-28T14:11:34.110Z,1.23
2022-12-28T14:14:38.043Z,1.40
2022-12-28T14:17:43.646Z,0.90
2022-12-28T14:20:48.079Z,1.40
2022-12-28T14:23:55.332Z,1.30
2022-12-28T14:27:00.060Z,1.40
2022-12-28T14:30:03.820Z,1.15
2022-12-28T14:33:19.488Z,1.67
2022-12-28T14:36:30.480Z,0.88
2022-12-28T14:39:35.681Z,1.10
2022-12-28T14:42:39.139Z,1.50
2022-12-28T14:46:07.333Z,1.52
2022-12-28T14:49:22.370Z,2.70
2022-12-28T14:52:43.967Z,4.07
2022-12-28T14:55:55.708Z,2.63
2022-12-28T14:59:00.764Z,12.48
2022-12-28T15:02:04.509Z,8.63
2022-12-28T15:05:35.671Z,2.95
2022-12-28T15:08:39.298Z,1.95
2022-12-28T15:11:44.965Z,1.27
2022-12-28T15:14:48.763Z,1.00
2022-12-28T15:17:52.278Z,1.10
2022-12-28T15:20:55.845Z,1.08
2022-12-28T15:23:59.537Z,0.88
2022-12-28T15:27:04.843Z,1.20
2022-12-28T15:30:11.920Z,0.93
2022-12-28T15:33:17.983Z,0.70
2022-12-28T15:36:22.082Z,1.00
2022-12-28T15:39:25.556Z,0.60
2022-12-28T15:42:36.535Z,0.70
2022-12-28T15:45:44.378Z,1.20
2022-12-28T15:48:47.902Z,1.00
2022-12-28T15:51:51.290Z,0.77
2022-12-28T15:54:55.069Z,0.93
2022-12-28T15:57:59.917Z,0.82
2022-12-28T16:01:03.386Z,0.95
2022-12-28T16:04:13.893Z,1.00
2022-12-28T16:07:19.169Z,1.23
2022-12-28T16:10:23.012Z,1.20
2022-12-28T16:13:29.121Z,0.85
2022-12-28T16:16:34.051Z,0.75
2022-12-28T16:19:37.539Z,0.80
2022-12-28T16:22:41.201Z,0.75
2022-12-28T16:25:51.086Z,0.90
2022-12-28T16:29:01.913Z,0.80
2022-12-28T16:32:06.134Z,0.73
2022-12-28T16:35:10.689Z,0.85
2022-12-28T16:38:19.245Z,1.20
2022-12-28T16:41:23.380Z,2.00
2022-12-28T16:44:29.611Z,5.35
2022-12-28T16:47:33.158Z,3.08
2022-12-28T16:50:36.911Z,1.58
2022-12-28T16:53:40.451Z,1.20
2022-12-28T16:56:44.321Z,1.40
2022-12-28T16:59:49.826Z,1.25
2022-12-28T17:02:53.627Z,0.77
2022-12-28T17:05:57.230Z,1.08
2022-12-28T17:09:02.652Z,1.33
2022-12-28T17:12:06.624Z,0.90
2022-12-28T17:15:12.527Z,1.00
2022-12-28T17:18:18.235Z,1.55
2022-12-28T17:21:21.965Z,1.50
2022-12-28T17:24:27.895Z,1.35
2022-12-28T17:27:31.399Z,1.40
2022-12-28T17:30:36.684Z,1.15
2022-12-28T17:33:40.515Z,1.27
2022-12-28T17:36:44.069Z,1.40
2022-12-28T17:39:47.694Z,1.38
2022-12-28T17:42:51.382Z,1.25
2022-12-28T17:46:02.547Z,1.35
2022-12-28T17:49:06.444Z,1.38
2022-12-28T17:52:11.468Z,1.27
2022-12-28T17:55:15.238Z,1.38
2022-12-28T17:58:18.833Z,1.38
2022-12-28T18:01:25.084Z,1.60
2022-12-28T18:04:29.019Z,1.75
2022-12-28T18:07:32.940Z,1.55
2022-12-28T18:10:36.507Z,1.42
2022-12-28T18:13:40.167Z,1.35
2022-12-28T18:16:45.201Z,1.50
2022-12-28T18:19:49.094Z,1.52
2022-12-28T18:22:52.575Z,1.70
2022-12-28T18:26:02.220Z,1.40
2022-12-28T18:29:06.740Z,1.48
2022-12-28T18:32:12.590Z,1.92
2022-12-28T18:35:16.923Z,1.42
2022-12-28T18:38:21.426Z,2.58
2022-12-28T18:41:28.940Z,2.30
2022-12-28T18:44:38.805Z,2.78
2022-12-28T18:47:44.037Z,4.00
2022-12-28T18:50:53.411Z,2.45
2022-12-28T18:53:56.815Z,2.15
2022-12-28T18:57:01.480Z,1.42
2022-12-28T19:00:05.545Z,2.78
2022-12-28T19:03:10.662Z,3.35
2022-12-28T19:06:14.962Z,4.47
2022-12-28T19:09:18.432Z,2.88
2022-12-28T19:12:21.944Z,2.50
2022-12-28T19:15:25.379Z,3.03
2022-12-28T19:18:30.380Z,4.45
2022-12-28T19:21:35.047Z,4.07
2022-12-28T19:24:38.504Z,4.57
2022-12-28T19:27:42.885Z,3.38
2022-12-28T19:30:47.673Z,3.20
2022-12-28T19:33:52.760Z,4.32
2022-12-28T19:36:59.729Z,2.17
2022-12-28T19:40:03.259Z,1.60
2022-12-28T19:43:07.164Z,1.85
2022-12-28T19:46:12.266Z,1.67
2022-12-28T19:49:17.470Z,1.52
2022-12-28T19:52:20.885Z,1.40
2022-12-28T19:55:24.899Z,1.30
2022-12-28T19:58:28.326Z,1.00
2022-12-28T20:01:36.095Z,1.17
2022-12-28T20:04:44.569Z,0.90
2022-12-28T20:07:48.001Z,1.00
2022-12-28T20:10:56.549Z,0.88
2022-12-28T20:14:02.590Z,1.05
2022-12-28T20:17:06.123Z,1.17
2022-12-28T20:20:11.339Z,1.25
2022-12-28T20:23:14.797Z,1.08
2022-12-28T20:26:19.036Z,0.98
2022-12-28T20:29:22.505Z,0.80
2022-12-28T20:32:26.991Z,1.20
2022-12-28T20:35:31.697Z,1.20
2022-12-28T20:38:36.104Z,0.90
2022-12-28T20:41:57.759Z,1.20
2022-12-28T20:45:02.083Z,1.17
2022-12-28T20:48:06.819Z,1.13
2022-12-28T20:51:11.757Z,1.02
2022-12-28T20:54:15.925Z,1.33
2022-12-28T20:57:19.631Z,1.00
2022-12-28T21:00:23.328Z,1.10
2022-12-28T21:03:26.999Z,1.20
2022-12-28T21:06:31.750Z,1.35
2022-12-28T21:09:35.331Z,0.88
2022-12-28T21:12:38.698Z,0.93
2022-12-28T21:15:42.250Z,1.23
2022-12-28T21:18:45.911Z,1.20
2022-12-28T21:21:50.728Z,1.58
2022-12-28T21:24:54.158Z,0.85
2022-12-28T21:27:57.647Z,2.17
2022-12-28T21:31:03.575Z,1.42
2022-12-28T21:34:07.724Z,0.82
2022-12-28T21:37:30.049Z,0.88
2022-12-28T21:40:33.498Z,1.10
2022-12-28T21:43:37.123Z,1.10
2022-12-28T21:46:40.712Z,1.35
2022-12-28T21:49:44.970Z,0.80
2022-12-28T21:52:50.708Z,0.95
2022-12-28T21:55:54.080Z,0.98
2022-12-28T21:58:59.067Z,1.02
2022-12-28T22:02:20.358Z,1.00
2022-12-28T22:05:42.265Z,0.80
2022-12-28T22:09:04.818Z,1.20
2022-12-28T22:12:25.848Z,1.10
2022-12-28T22:15:47.768Z,1.35
2022-12-28T22:19:02.159Z,1.27
2022-12-28T22:22:10.202Z,1.00
2022-12-28T22:25:15.340Z,1.67
2022-12-28T22:28:18.678Z,0.95
2022-12-28T22:31:22.832Z,1.00
2022-12-28T22:34:26.310Z,0.98
2022-12-28T22:37:29.796Z,1.00
2022-12-28T22:40:34.690Z,0.80
2022-12-28T22:43:38.795Z,1.10
2022-12-28T22:46:42.172Z,1.17
2022-12-28T22:49:45.584Z,1.17
2022-12-28T22:52:49.192Z,0.75
2022-12-28T22:56:01.646Z,1.23
2022-12-28T22:59:05.458Z,1.00
2022-12-28T23:02:10.506Z,1.00
2022-12-28T23:05:14.032Z,1.00
2022-12-28T23:08:18.696Z,0.70
2022-12-28T23:11:40.633Z,0.80
2022-12-28T23:15:02.362Z,0.82
2022-12-28T23:18:22.187Z,1.10
2022-12-28T23:21:45.542Z,0.90
2022-12-28T23:25:07.080Z,1.20
2022-12-28T23:28:13.394Z,1.25
2022-12-28T23:31:17.180Z,0.73
2022-12-28T23:34:23.443Z,0.75
2022-12-28T23:37:27.010Z,0.90
2022-12-28T23:40:30.592Z,1.02
2022-12-28T23:43:36.181Z,1.00
2022-12-28T23:46:39.843Z,0.75
2022-12-28T23:49:43.395Z,0.70
2022-12-28T23:52:47.895Z,0.80
2022-12-28T23:55:51.698Z,0.80
2022-12-28T23:58:56.600Z,0.88
